Time;durP1;ratioP1;P1;durP2;ratioP2;P2;SDS_P1;SDS_P2;PMS_P1;PMS_P2;Temp;Humidity;BMP_temperature;BMP_pressure;BME280_temperature;BME280_humidity;BME280_pressure;Samples;Min_cycle;Max_cycle;Signal;HPM_P1;HPM_P2
2023/11/27 00:01:29;;;;;;;8.90;5.78;;;;;;;;;;4980671;28;20121;-77
2023/11/27 00:03:54;;;;;;;10.20;5.35;;;;;;;;;;4981833;28;20445;-77
2023/11/27 00:06:19;;;;;;;9.55;5.50;;;;;;;;;;4978260;28;20038;-78
2023/11/27 00:08:45;;;;;;;8.38;5.90;;;;;;;;;;4979359;28;20437;-77
2023/11/27 00:11:10;;;;;;;8.63;5.47;;;;;;;;;;4985627;28;20463;-78
2023/11/27 00:13:36;;;;;;;8.15;5.85;;;;;;;;;;4978364;28;20035;-78
2023/11/27 00:16:01;;;;;;;9.27;5.60;;;;;;;;;;4981405;28;20083;-77
2023/11/27 00:18:26;;;;;;;9.57;6.05;;;;;;;;;;4978284;28;20410;-76
2023/11/27 00:20:51;;;;;;;10.98;6.22;;;;;;;;;;4982603;28;20118;-78
2023/11/27 00:23:17;;;;;;;8.30;6.00;;;;;;;;;;4985343;28;20402;-78
2023/11/27 00:25:42;;;;;;;10.80;6.63;;;;;;;;;;4980859;28;20402;-77
2023/11/27 00:28:07;;;;;;;11.35;7.30;;;;;;;;;;4980931;28;20589;-78
2023/11/27 00:30:33;;;;;;;9.30;5.82;;;;;;;;;;4979409;28;20061;-78
2023/11/27 00:32:58;;;;;;;9.68;5.65;;;;;;;;;;4976504;28;20034;-78
2023/11/27 00:35:23;;;;;;;10.52;6.50;;;;;;;;;;4980022;28;20022;-77
2023/11/27 00:37:48;;;;;;;10.70;5.68;;;;;;;;;;4978260;28;20414;-78
2023/11/27 00:40:14;;;;;;;8.70;5.65;;;;;;;;;;4984520;28;20032;-77
2023/11/27 00:42:39;;;;;;;10.25;6.85;;;;;;;;;;4979592;28;20512;-78
2023/11/27 00:45:06;;;;;;;10.27;6.40;;;;;;;;;;4980294;28;20033;-77
2023/11/27 00:47:31;;;;;;;10.65;5.93;;;;;;;;;;4980736;28;20414;-77
2023/11/27 00:49:56;;;;;;;10.15;6.88;;;;;;;;;;4985109;28;20027;-77
2023/11/27 00:52:21;;;;;;;10.60;7.00;;;;;;;;;;4979850;28;20383;-77
2023/11/27 00:54:48;;;;;;;8.85;6.10;;;;;;;;;;4977535;28;20046;-76
2023/11/27 00:57:14;;;;;;;7.65;5.35;;;;;;;;;;4981659;28;20109;-77
2023/11/27 00:59:40;;;;;;;10.00;5.30;;;;;;;;;;4976763;28;20058;-76
2023/11/27 01:02:06;;;;;;;8.98;6.15;;;;;;;;;;4979149;28;20491;-77
2023/11/27 01:04:31;;;;;;;12.07;6.72;;;;;;;;;;4982564;28;20049;-77
2023/11/27 01:06:56;;;;;;;8.20;5.30;;;;;;;;;;4982299;28;20030;-77
2023/11/27 01:09:21;;;;;;;7.47;5.28;;;;;;;;;;4984334;28;20103;-77
2023/11/27 01:11:47;;;;;;;8.63;5.53;;;;;;;;;;4989009;28;20035;-77
2023/11/27 01:14:12;;;;;;;8.70;6.22;;;;;;;;;;4980038;28;20487;-78
2023/11/27 01:16:38;;;;;;;10.00;5.55;;;;;;;;;;4985499;28;20058;-78
2023/11/27 01:19:03;;;;;;;9.95;5.93;;;;;;;;;;4983429;28;20035;-78
2023/11/27 01:21:28;;;;;;;8.68;5.43;;;;;;;;;;4984805;28;20031;-77
2023/11/27 01:23:53;;;;;;;8.93;6.07;;;;;;;;;;4988377;28;20031;-77
2023/11/27 01:26:18;;;;;;;7.80;5.05;;;;;;;;;;4981943;28;20375;-77
2023/11/27 01:28:44;;;;;;;8.23;5.43;;;;;;;;;;4979272;28;20079;-78
2023/11/27 01:31:09;;;;;;;8.27;5.78;;;;;;;;;;4986550;28;20124;-78
2023/11/27 01:33:34;;;;;;;9.10;5.95;;;;;;;;;;4981447;28;20031;-78
2023/11/27 01:35:59;;;;;;;9.40;5.95;;;;;;;;;;4983046;28;20072;-78
2023/11/27 01:38:24;;;;;;;8.98;6.05;;;;;;;;;;4984145;28;20050;-78
2023/11/27 01:40:50;;;;;;;9.63;5.40;;;;;;;;;;4985432;28;20558;-77
2023/11/27 01:43:15;;;;;;;9.27;6.47;;;;;;;;;;4979521;28;20034;-78
2023/11/27 01:45:42;;;;;;;9.73;6.13;;;;;;;;;;4979854;28;20100;-78
2023/11/27 01:48:07;;;;;;;9.45;5.85;;;;;;;;;;4983866;28;20494;-78
2023/11/27 01:50:33;;;;;;;8.60;5.63;;;;;;;;;;4985596;28;20035;-79
2023/11/27 01:52:58;;;;;;;9.55;6.07;;;;;;;;;;4988886;28;20037;-78
2023/11/27 01:55:24;;;;;;;7.50;5.47;;;;;;;;;;4979813;28;20031;-78
2023/11/27 01:57:49;;;;;;;8.13;5.60;;;;;;;;;;4980590;28;20080;-78
2023/11/27 02:00:14;;;;;;;9.27;6.30;;;;;;;;;;4986648;28;20062;-78
2023/11/27 02:02:47;;;;;;;9.45;6.00;;;;;;;;;;4989180;28;20118;-78
2023/11/27 02:05:12;;;;;;;10.60;6.38;;;;;;;;;;4993075;28;20042;-75
2023/11/27 02:07:37;;;;;;;9.18;6.32;;;;;;;;;;4981688;28;20103;-78
2023/11/27 02:10:03;;;;;;;9.25;5.95;;;;;;;;;;4968615;28;20034;-78
2023/11/27 02:12:29;;;;;;;9.73;6.57;;;;;;;;;;4987239;28;20022;-78
2023/11/27 02:14:54;;;;;;;10.88;6.40;;;;;;;;;;4983783;28;20025;-77
2023/11/27 02:17:19;;;;;;;9.90;6.13;;;;;;;;;;4983096;28;20441;-78
2023/11/27 02:19:44;;;;;;;9.57;6.00;;;;;;;;;;4980888;28;20514;-78
2023/11/27 02:22:10;;;;;;;8.35;5.78;;;;;;;;;;4982280;28;20398;-78
2023/11/27 02:24:35;;;;;;;8.30;5.05;;;;;;;;;;4982350;28;20027;-78
2023/11/27 02:27:00;;;;;;;9.27;6.25;;;;;;;;;;4982817;28;20057;-77
2023/11/27 02:29:26;;;;;;;8.65;6.13;;;;;;;;;;4986134;28;20037;-78
2023/11/27 02:31:51;;;;;;;11.45;6.97;;;;;;;;;;4981955;28;20077;-78
2023/11/27 02:34:17;;;;;;;8.93;6.00;;;;;;;;;;4981294;28;20026;-78
2023/11/27 02:36:42;;;;;;;10.23;6.00;;;;;;;;;;4979544;28;20066;-78
2023/11/27 02:39:08;;;;;;;10.13;6.90;;;;;;;;;;4982364;28;20039;-78
2023/11/27 02:41:36;;;;;;;8.93;6.40;;;;;;;;;;4985379;28;20027;-78
2023/11/27 02:44:02;;;;;;;13.13;7.43;;;;;;;;;;4982930;28;20031;-78
2023/11/27 02:46:27;;;;;;;10.25;6.15;;;;;;;;;;4968422;28;20590;-78
2023/11/27 02:48:54;;;;;;;10.35;6.28;;;;;;;;;;4981558;28;20019;-78
2023/11/27 02:51:20;;;;;;;13.43;6.85;;;;;;;;;;4982620;28;20414;-78
2023/11/27 02:53:45;;;;;;;10.38;6.75;;;;;;;;;;4983262;28;20092;-78
2023/11/27 02:56:11;;;;;;;11.60;7.07;;;;;;;;;;4982741;28;20068;-77
2023/11/27 02:58:38;;;;;;;10.27;6.20;;;;;;;;;;4980315;28;20373;-78
2023/11/27 03:01:04;;;;;;;12.75;7.07;;;;;;;;;;4983436;28;20030;-78
2023/11/27 03:03:29;;;;;;;11.82;7.00;;;;;;;;;;4985527;28;20054;-78
2023/11/27 03:05:54;;;;;;;11.20;6.70;;;;;;;;;;4977911;28;20027;-77
2023/11/27 03:08:19;;;;;;;11.35;7.07;;;;;;;;;;4983084;28;20382;-77
2023/11/27 03:10:44;;;;;;;9.43;6.13;;;;;;;;;;4980248;28;20034;-78
2023/11/27 03:13:09;;;;;;;11.00;6.88;;;;;;;;;;4985524;28;20052;-78
2023/11/27 03:15:35;;;;;;;13.07;6.72;;;;;;;;;;4981727;28;20031;-77
2023/11/27 03:18:00;;;;;;;9.35;5.97;;;;;;;;;;4982506;28;20030;-78
2023/11/27 03:20:25;;;;;;;11.63;7.60;;;;;;;;;;4979700;28;20135;-77
2023/11/27 03:22:50;;;;;;;13.05;7.43;;;;;;;;;;4978943;28;20041;-78
2023/11/27 03:25:15;;;;;;;12.63;7.32;;;;;;;;;;4983696;28;20042;-78
2023/11/27 03:27:41;;;;;;;13.70;7.25;;;;;;;;;;4978958;28;20556;-78
2023/11/27 03:30:06;;;;;;;14.52;6.80;;;;;;;;;;4983843;28;20129;-78
2023/11/27 03:32:31;;;;;;;12.82;7.30;;;;;;;;;;4982435;28;20560;-78
2023/11/27 03:35:00;;;;;;;10.98;7.38;;;;;;;;;;4979314;28;20026;-77
2023/11/27 03:37:25;;;;;;;13.18;7.22;;;;;;;;;;4978685;28;20041;-77
2023/11/27 03:39:51;;;;;;;12.27;6.50;;;;;;;;;;4986229;28;20437;-78
2023/11/27 03:42:16;;;;;;;14.20;7.25;;;;;;;;;;4980230;28;20042;-78
2023/11/27 03:44:41;;;;;;;12.50;7.18;;;;;;;;;;4979902;28;20031;-77
2023/11/27 03:47:07;;;;;;;14.07;8.18;;;;;;;;;;4977425;28;20064;-78
2023/11/27 03:49:32;;;;;;;12.55;7.30;;;;;;;;;;4979858;28;20133;-78
2023/11/27 03:51:57;;;;;;;12.68;6.38;;;;;;;;;;4981381;28;20038;-78
2023/11/27 03:54:23;;;;;;;14.50;7.63;;;;;;;;;;4981061;28;20026;-78
2023/11/27 03:56:48;;;;;;;14.35;7.03;;;;;;;;;;4981988;28;20026;-78
2023/11/27 03:59:14;;;;;;;11.65;6.85;;;;;;;;;;4980136;28;20037;-78
2023/11/27 04:01:39;;;;;;;13.00;7.13;;;;;;;;;;4981901;28;20027;-78
2023/11/27 04:04:05;;;;;;;13.70;7.38;;;;;;;;;;4980750;28;20077;-78
2023/11/27 04:06:31;;;;;;;13.13;7.57;;;;;;;;;;4981041;28;20033;-78
2023/11/27 04:08:57;;;;;;;17.95;9.57;;;;;;;;;;4982030;28;20034;-78
2023/11/27 04:11:22;;;;;;;15.02;8.65;;;;;;;;;;4984387;28;20076;-78
2023/11/27 04:13:47;;;;;;;11.68;7.32;;;;;;;;;;4980969;28;20502;-77
2023/11/27 04:16:13;;;;;;;12.45;6.95;;;;;;;;;;4979701;28;20039;-78
2023/11/27 04:18:38;;;;;;;11.88;7.00;;;;;;;;;;4980682;28;20023;-78
2023/11/27 04:21:06;;;;;;;11.35;7.32;;;;;;;;;;4981659;28;20048;-78
2023/11/27 04:23:31;;;;;;;13.77;6.57;;;;;;;;;;4980130;28;20039;-76
2023/11/27 04:25:56;;;;;;;12.45;7.28;;;;;;;;;;4993948;28;20075;-78
2023/11/27 04:28:22;;;;;;;12.15;6.97;;;;;;;;;;4987183;28;20038;-77
2023/11/27 04:30:47;;;;;;;15.30;7.60;;;;;;;;;;4979863;28;20031;-78
2023/11/27 04:33:14;;;;;;;12.90;6.85;;;;;;;;;;4984828;28;20083;-78
2023/11/27 04:35:39;;;;;;;14.35;8.05;;;;;;;;;;4980654;28;20517;-78
2023/11/27 04:38:04;;;;;;;14.60;7.57;;;;;;;;;;4983472;28;20061;-78
2023/11/27 04:40:30;;;;;;;11.48;7.32;;;;;;;;;;4990700;28;20037;-77
2023/11/27 04:42:55;;;;;;;13.15;7.32;;;;;;;;;;4980597;28;20031;-78
2023/11/27 04:45:20;;;;;;;10.68;7.13;;;;;;;;;;4987979;28;20409;-78
2023/11/27 04:47:45;;;;;;;13.73;6.88;;;;;;;;;;4981316;28;20046;-78
2023/11/27 04:50:10;;;;;;;11.18;6.80;;;;;;;;;;4987201;28;20045;-78
2023/11/27 04:52:36;;;;;;;12.55;7.78;;;;;;;;;;4986400;28;20411;-78
2023/11/27 04:55:03;;;;;;;12.30;7.43;;;;;;;;;;4986381;28;20105;-78
2023/11/27 04:57:28;;;;;;;10.98;6.97;;;;;;;;;;4982665;28;20034;-79
2023/11/27 04:59:53;;;;;;;11.98;7.35;;;;;;;;;;4982291;28;20047;-78
2023/11/27 05:02:18;;;;;;;11.57;7.20;;;;;;;;;;4989936;28;20509;-78
2023/11/27 05:04:44;;;;;;;11.15;7.20;;;;;;;;;;4982127;28;20030;-78
2023/11/27 05:07:10;;;;;;;12.77;7.68;;;;;;;;;;4987148;28;20062;-78
2023/11/27 05:09:38;;;;;;;11.98;7.05;;;;;;;;;;4984476;28;20046;-78
2023/11/27 05:12:04;;;;;;;14.43;8.40;;;;;;;;;;4983651;28;20031;-79
2023/11/27 05:14:29;;;;;;;10.90;6.80;;;;;;;;;;4983425;28;20023;-78
2023/11/27 05:16:54;;;;;;;9.20;5.57;;;;;;;;;;4985301;28;20441;-77
2023/11/27 05:19:19;;;;;;;9.57;6.05;;;;;;;;;;4984200;28;20033;-78
2023/11/27 05:21:45;;;;;;;9.63;5.85;;;;;;;;;;4986019;28;20106;-78
2023/11/27 05:24:10;;;;;;;8.65;5.22;;;;;;;;;;4981800;28;20039;-78
2023/11/27 05:26:35;;;;;;;8.85;5.32;;;;;;;;;;4983656;28;20177;-78
2023/11/27 05:29:00;;;;;;;8.93;5.13;;;;;;;;;;4984091;28;20130;-77
2023/11/27 05:31:25;;;;;;;7.38;3.97;;;;;;;;;;4984454;28;20525;-78
2023/11/27 05:33:51;;;;;;;7.03;3.97;;;;;;;;;;4987878;28;20026;-77
2023/11/27 05:36:16;;;;;;;6.32;3.63;;;;;;;;;;4986375;28;20160;-77
2023/11/27 05:38:42;;;;;;;21.42;13.73;;;;;;;;;;4986278;28;20394;-77
2023/11/27 05:41:07;;;;;;;11.20;6.82;;;;;;;;;;4987925;28;20418;-77
2023/11/27 05:43:33;;;;;;;9.68;4.50;;;;;;;;;;4988973;28;20031;-74
2023/11/27 05:45:58;;;;;;;6.45;3.90;;;;;;;;;;4985414;28;20185;-78
2023/11/27 05:48:23;;;;;;;6.50;3.33;;;;;;;;;;4985626;28;20034;-77
2023/11/27 05:50:49;;;;;;;6.63;3.40;;;;;;;;;;4989696;28;20449;-77
2023/11/27 05:53:14;;;;;;;5.43;3.58;;;;;;;;;;4983682;28;20667;-78
2023/11/27 05:55:39;;;;;;;5.95;3.58;;;;;;;;;;4986312;28;20034;-78
2023/11/27 05:58:05;;;;;;;5.88;3.40;;;;;;;;;;5006441;28;20032;-78
2023/11/27 06:00:31;;;;;;;5.68;3.55;;;;;;;;;;4989047;28;20042;-76
2023/11/27 06:02:56;;;;;;;8.10;3.80;;;;;;;;;;4990445;28;20030;-78
2023/11/27 06:05:22;;;;;;;6.43;3.97;;;;;;;;;;4979249;28;20031;-78
2023/11/27 06:07:48;;;;;;;6.10;4.25;;;;;;;;;;4981573;28;20472;-78
2023/11/27 06:10:13;;;;;;;5.72;3.22;;;;;;;;;;4984276;28;20440;-78
2023/11/27 06:12:39;;;;;;;6.32;3.80;;;;;;;;;;4973945;28;20080;-78
2023/11/27 06:15:04;;;;;;;5.57;3.50;;;;;;;;;;4981078;28;20027;-78
2023/11/27 06:17:29;;;;;;;5.72;2.88;;;;;;;;;;4979461;28;20031;-78
2023/11/27 06:19:55;;;;;;;5.95;3.80;;;;;;;;;;4980224;28;20035;-78
2023/11/27 06:22:20;;;;;;;6.35;3.75;;;;;;;;;;4983686;28;20252;-79
2023/11/27 06:24:45;;;;;;;5.55;3.60;;;;;;;;;;4979415;28;20038;-77
2023/11/27 06:27:10;;;;;;;5.20;3.17;;;;;;;;;;4983067;28;20501;-78
2023/11/27 06:29:35;;;;;;;5.03;2.90;;;;;;;;;;4980263;28;20038;-78
2023/11/27 06:32:01;;;;;;;6.38;4.25;;;;;;;;;;4999196;28;20062;-78
2023/11/27 06:34:26;;;;;;;6.78;4.20;;;;;;;;;;4980154;28;20064;-78
2023/11/27 06:36:52;;;;;;;6.63;4.05;;;;;;;;;;4983138;28;20035;-78
2023/11/27 06:39:17;;;;;;;6.13;3.42;;;;;;;;;;4983492;28;20026;-77
2023/11/27 06:41:42;;;;;;;6.38;3.90;;;;;;;;;;4986052;28;20045;-78
2023/11/27 06:44:09;;;;;;;7.43;4.65;;;;;;;;;;4983936;28;20454;-78
2023/11/27 06:46:34;;;;;;;7.10;4.40;;;;;;;;;;4980152;28;20035;-78
2023/11/27 06:49:00;;;;;;;5.90;3.47;;;;;;;;;;4989333;28;20054;-77
2023/11/27 06:51:25;;;;;;;7.13;4.47;;;;;;;;;;4987442;28;20069;-78
2023/11/27 06:53:50;;;;;;;5.18;3.30;;;;;;;;;;4982783;28;20102;-78
2023/11/27 06:56:15;;;;;;;7.15;4.32;;;;;;;;;;4984561;28;20041;-77
2023/11/27 06:58:41;;;;;;;6.63;4.10;;;;;;;;;;4979734;28;20031;-78
2023/11/27 07:01:12;;;;;;;6.05;3.22;;;;;;;;;;4977548;28;20038;-78
2023/11/27 07:03:38;;;;;;;6.20;3.95;;;;;;;;;;4981788;28;20054;-78
2023/11/27 07:06:04;;;;;;;6.95;4.15;;;;;;;;;;4984546;28;20494;-78
2023/11/27 07:08:29;;;;;;;7.20;4.55;;;;;;;;;;4981780;28;20035;-78
2023/11/27 07:10:55;;;;;;;6.57;3.83;;;;;;;;;;4986236;28;20536;-78
2023/11/27 07:13:20;;;;;;;6.40;4.40;;;;;;;;;;4981561;28;20037;-77
2023/11/27 07:15:45;;;;;;;6.75;4.50;;;;;;;;;;4981832;28;20127;-78
2023/11/27 07:18:10;;;;;;;7.45;4.82;;;;;;;;;;4980638;28;20052;-77
2023/11/27 07:20:37;;;;;;;6.30;4.00;;;;;;;;;;4986746;28;20034;-78
2023/11/27 07:23:02;;;;;;;6.20;4.28;;;;;;;;;;4981906;28;20034;-78
2023/11/27 07:25:28;;;;;;;6.80;3.80;;;;;;;;;;4980708;28;20387;-78
2023/11/27 07:27:53;;;;;;;6.05;3.90;;;;;;;;;;4981559;28;20083;-78
2023/11/27 07:33:04;;;;;;;6.47;3.92;;;;;;;;;;4980720;28;20083;-78
2023/11/27 07:35:29;;;;;;;6.97;4.15;;;;;;;;;;4985645;28;20034;-79
2023/11/27 07:37:55;;;;;;;5.95;3.85;;;;;;;;;;4985896;28;20039;-79
2023/11/27 07:40:20;;;;;;;4.68;3.08;;;;;;;;;;4984314;28;20045;-78
2023/11/27 07:42:48;;;;;;;6.30;4.10;;;;;;;;;;4980547;28;20173;-78
2023/11/27 07:45:14;;;;;;;7.80;5.10;;;;;;;;;;4980792;28;20031;-78
2023/11/27 07:47:39;;;;;;;7.35;4.50;;;;;;;;;;4985582;28;20045;-78
2023/11/27 07:50:06;;;;;;;6.35;4.15;;;;;;;;;;4987871;28;20388;-77
2023/11/27 07:52:31;;;;;;;5.50;3.47;;;;;;;;;;4985497;28;20103;-79
2023/11/27 07:54:56;;;;;;;5.78;3.88;;;;;;;;;;4963775;28;20058;-78
2023/11/27 07:57:22;;;;;;;5.38;3.58;;;;;;;;;;4977376;28;20058;-78
2023/11/27 07:59:48;;;;;;;9.77;6.20;;;;;;;;;;4979981;28;20076;-78
2023/11/27 08:02:13;;;;;;;9.50;5.97;;;;;;;;;;4982837;28;20498;-79
2023/11/27 08:04:39;;;;;;;7.97;4.60;;;;;;;;;;4984325;28;20038;-78
2023/11/27 08:07:06;;;;;;;7.65;5.18;;;;;;;;;;4983958;28;20031;-79
2023/11/27 08:09:31;;;;;;;6.28;4.38;;;;;;;;;;4983008;28;20045;-79
2023/11/27 08:11:56;;;;;;;7.00;4.43;;;;;;;;;;4987081;28;20030;-78
2023/11/27 08:14:22;;;;;;;7.13;4.55;;;;;;;;;;4981382;28;20035;-78
2023/11/27 08:16:48;;;;;;;6.97;4.15;;;;;;;;;;4986805;28;20037;-79
2023/11/27 08:19:16;;;;;;;7.55;4.65;;;;;;;;;;4987340;28;20030;-79
2023/11/27 08:21:42;;;;;;;7.20;4.55;;;;;;;;;;4978455;28;20027;-78
2023/11/27 08:24:07;;;;;;;7.25;5.15;;;;;;;;;;4982243;28;20042;-79
2023/11/27 08:26:39;;;;;;;7.22;4.68;;;;;;;;;;4979896;28;20025;-79
2023/11/27 08:29:07;;;;;;;7.18;4.90;;;;;;;;;;4983428;28;20066;-79
2023/11/27 08:31:33;;;;;;;8.30;4.93;;;;;;;;;;4983439;28;20415;-78
2023/11/27 08:33:58;;;;;;;8.20;5.00;;;;;;;;;;4980132;28;20034;-79
2023/11/27 08:36:27;;;;;;;7.13;5.07;;;;;;;;;;4980204;28;20031;-79
2023/11/27 08:38:53;;;;;;;7.82;4.90;;;;;;;;;;4978562;28;20041;-78
2023/11/27 08:41:18;;;;;;;7.60;4.72;;;;;;;;;;4982796;28;20030;-78
2023/11/27 08:43:43;;;;;;;6.68;4.53;;;;;;;;;;4986688;28;20030;-78
2023/11/27 08:46:09;;;;;;;6.95;5.18;;;;;;;;;;4986759;28;20627;-79
2023/11/27 08:48:34;;;;;;;8.05;5.45;;;;;;;;;;4978035;28;20056;-79
2023/11/27 08:50:59;;;;;;;8.10;5.07;;;;;;;;;;4979650;28;20037;-78
2023/11/27 08:53:27;;;;;;;7.97;5.20;;;;;;;;;;4978686;28;20027;-79
2023/11/27 08:55:53;;;;;;;6.75;4.85;;;;;;;;;;4979290;28;20025;-79
2023/11/27 08:58:19;;;;;;;6.78;4.60;;;;;;;;;;4981474;28;20022;-78
2023/11/27 09:00:44;;;;;;;9.18;6.38;;;;;;;;;;4981720;28;20430;-79
2023/11/27 09:03:09;;;;;;;10.27;6.90;;;;;;;;;;4980704;28;20058;-78
2023/11/27 09:05:37;;;;;;;9.98;6.80;;;;;;;;;;4980020;28;20483;-79
2023/11/27 09:08:05;;;;;;;13.13;8.60;;;;;;;;;;4983634;28;20558;-79
2023/11/27 09:10:31;;;;;;;11.93;8.13;;;;;;;;;;4986060;28;20163;-79
2023/11/27 09:12:56;;;;;;;8.48;5.82;;;;;;;;;;4983201;28;20031;-78
2023/11/27 09:15:21;;;;;;;8.90;6.30;;;;;;;;;;4982899;28;20030;-78
2023/11/27 09:17:47;;;;;;;7.93;5.60;;;;;;;;;;4979202;28;20033;-79
2023/11/27 09:20:12;;;;;;;6.90;4.95;;;;;;;;;;4982048;28;20081;-79
2023/11/27 09:22:37;;;;;;;7.00;4.93;;;;;;;;;;4981128;28;20490;-78
2023/11/27 09:25:07;;;;;;;8.18;5.30;;;;;;;;;;4982052;28;20031;-78
2023/11/27 09:27:33;;;;;;;7.25;4.82;;;;;;;;;;4982220;28;20454;-79
2023/11/27 09:29:58;;;;;;;7.43;5.03;;;;;;;;;;4987434;28;20054;-79
2023/11/27 09:32:23;;;;;;;8.35;5.80;;;;;;;;;;4989812;28;20035;-79
2023/11/27 09:34:49;;;;;;;7.55;5.40;;;;;;;;;;4987741;28;20037;-79
2023/11/27 09:37:15;;;;;;;7.93;4.75;;;;;;;;;;4983861;28;20061;-78
2023/11/27 09:39:40;;;;;;;9.88;5.78;;;;;;;;;;4983253;28;20026;-79
2023/11/27 09:42:05;;;;;;;7.60;5.18;;;;;;;;;;4987962;28;20031;-79
2023/11/27 09:44:35;;;;;;;7.60;4.72;;;;;;;;;;4984247;28;20037;-79
2023/11/27 09:47:02;;;;;;;6.22;4.57;;;;;;;;;;4982639;28;20045;-79
2023/11/27 09:49:28;;;;;;;6.65;4.60;;;;;;;;;;4980416;28;20035;-79
2023/11/27 09:51:57;;;;;;;5.45;3.67;;;;;;;;;;4982063;28;20027;-79
2023/11/27 09:54:23;;;;;;;6.05;3.80;;;;;;;;;;4984628;28;20497;-78
2023/11/27 09:56:49;;;;;;;6.20;3.90;;;;;;;;;;4995409;28;20132;-78
2023/11/27 09:59:17;;;;;;;6.43;4.22;;;;;;;;;;4984066;28;20406;-79
2023/11/27 10:01:42;;;;;;;6.95;4.57;;;;;;;;;;4981975;28;20041;-79
2023/11/27 10:04:08;;;;;;;8.68;5.70;;;;;;;;;;4982505;28;20043;-79
2023/11/27 10:06:34;;;;;;;10.52;5.97;;;;;;;;;;4983057;28;20042;-79
2023/11/27 10:09:03;;;;;;;8.80;5.43;;;;;;;;;;4981497;28;20031;-79
2023/11/27 10:11:29;;;;;;;6.55;4.38;;;;;;;;;;4989906;28;20117;-78
2023/11/27 10:13:55;;;;;;;5.82;4.25;;;;;;;;;;4984818;28;20105;-78
2023/11/27 10:16:22;;;;;;;6.72;4.22;;;;;;;;;;4984399;28;20057;-78
2023/11/27 10:18:49;;;;;;;6.25;4.07;;;;;;;;;;4983225;28;20034;-78
2023/11/27 10:21:15;;;;;;;5.40;3.70;;;;;;;;;;4986317;28;20045;-79
2023/11/27 10:23:41;;;;;;;6.93;4.38;;;;;;;;;;4980392;28;20099;-77
2023/11/27 10:26:06;;;;;;;6.10;4.50;;;;;;;;;;4984743;28;20042;-79
2023/11/27 10:28:50;;;;;;;5.90;4.10;;;;;;;;;;4980494;28;20080;-78
2023/11/27 10:31:15;;;;;;;6.60;4.30;;;;;;;;;;4981065;28;20494;-79
2023/11/27 10:33:40;;;;;;;5.72;3.88;;;;;;;;;;4982168;28;20038;-79
2023/11/27 10:36:06;;;;;;;6.63;4.28;;;;;;;;;;4981633;28;20045;-79
2023/11/27 10:38:33;;;;;;;5.90;3.95;;;;;;;;;;4982394;28;20378;-79
2023/11/27 10:41:01;;;;;;;6.68;3.97;;;;;;;;;;4986634;28;20107;-79
2023/11/27 10:43:27;;;;;;;6.25;3.17;;;;;;;;;;4980477;28;20056;-78
2023/11/27 10:45:55;;;;;;;6.15;3.25;;;;;;;;;;4986634;28;20574;-79
2023/11/27 10:48:20;;;;;;;6.38;2.60;;;;;;;;;;4985803;28;20064;-79
2023/11/27 10:50:47;;;;;;;5.07;2.30;;;;;;;;;;4986788;28;20035;-78
2023/11/27 10:53:13;;;;;;;4.53;2.55;;;;;;;;;;4983860;28;20087;-79
2023/11/27 10:55:38;;;;;;;5.07;2.10;;;;;;;;;;4982322;28;20034;-78
2023/11/27 10:58:05;;;;;;;5.10;2.00;;;;;;;;;;4980192;28;20035;-78
2023/11/27 11:00:32;;;;;;;6.90;3.08;;;;;;;;;;4983116;28;20040;-80
2023/11/27 11:03:02;;;;;;;5.70;2.33;;;;;;;;;;4984572;28;20081;-78
2023/11/27 11:05:32;;;;;;;5.53;2.42;;;;;;;;;;4988447;28;20041;-78
2023/11/27 11:07:58;;;;;;;7.95;3.60;;;;;;;;;;4979150;28;20055;-76
2023/11/27 11:10:26;;;;;;;4.25;2.50;;;;;;;;;;4984435;28;20042;-76
2023/11/27 11:12:53;;;;;;;5.35;2.25;;;;;;;;;;4980975;28;20035;-77
2023/11/27 11:15:21;;;;;;;4.68;2.28;;;;;;;;;;4988717;28;20070;-78
2023/11/27 11:17:54;;;;;;;6.50;3.15;;;;;;;;;;4982991;28;20394;-77
2023/11/27 11:20:28;;;;;;;5.68;3.22;;;;;;;;;;4985089;28;20038;-77
2023/11/27 11:23:14;;;;;;;7.10;3.42;;;;;;;;;;4987629;28;20029;-77
2023/11/27 11:25:49;;;;;;;7.20;2.92;;;;;;;;;;4985931;28;20069;-77
2023/11/27 11:28:27;;;;;;;3.90;2.30;;;;;;;;;;4987672;28;20050;-77
2023/11/27 11:31:11;;;;;;;6.45;3.53;;;;;;;;;;4987591;28;20041;-77
2023/11/27 11:33:36;;;;;;;5.20;2.47;;;;;;;;;;4987940;28;20026;-79
2023/11/27 11:36:02;;;;;;;5.47;3.55;;;;;;;;;;4982883;28;20395;-77
2023/11/27 11:38:31;;;;;;;5.35;2.10;;;;;;;;;;4980078;28;20042;-77
2023/11/27 11:40:56;;;;;;;5.70;2.55;;;;;;;;;;4980869;28;20041;-77
2023/11/27 11:43:24;;;;;;;5.60;2.83;;;;;;;;;;4985843;28;20105;-77
2023/11/27 11:45:49;;;;;;;4.53;2.15;;;;;;;;;;4981222;28;20117;-78
2023/11/27 11:48:17;;;;;;;4.25;2.17;;;;;;;;;;4984851;28;20105;-77
2023/11/27 11:50:42;;;;;;;4.57;2.22;;;;;;;;;;4978415;28;20035;-77
2023/11/27 11:53:14;;;;;;;5.47;2.78;;;;;;;;;;4985074;28;20041;-76
2023/11/27 11:55:39;;;;;;;7.15;3.08;;;;;;;;;;4984517;28;20054;-77
2023/11/27 11:58:19;;;;;;;4.57;1.98;;;;;;;;;;4978540;28;20470;-77
2023/11/27 12:00:45;;;;;;;6.45;3.78;;;;;;;;;;4980246;28;20038;-78
2023/11/27 12:03:17;;;;;;;4.57;2.75;;;;;;;;;;4986296;28;20038;-78
2023/11/27 12:05:50;;;;;;;5.43;2.60;;;;;;;;;;4981790;28;20053;-78
2023/11/27 12:08:18;;;;;;;4.15;2.60;;;;;;;;;;4978224;28;20046;-78
2023/11/27 12:10:43;;;;;;;5.68;2.78;;;;;;;;;;4982354;28;20462;-78
2023/11/27 12:13:09;;;;;;;5.55;2.50;;;;;;;;;;4982494;28;20054;-77
2023/11/27 12:15:34;;;;;;;4.97;2.67;;;;;;;;;;4981679;28;20411;-77
2023/11/27 12:18:00;;;;;;;5.47;2.50;;;;;;;;;;4977754;28;20093;-77
2023/11/27 12:20:25;;;;;;;4.18;2.50;;;;;;;;;;4979360;28;20041;-77
2023/11/27 12:22:51;;;;;;;3.42;1.95;;;;;;;;;;4980974;28;20138;-77
2023/11/27 12:25:18;;;;;;;3.40;1.63;;;;;;;;;;4980388;28;20035;-77
2023/11/27 12:27:44;;;;;;;3.17;1.88;;;;;;;;;;4982198;28;20049;-77
2023/11/27 12:30:10;;;;;;;3.92;2.13;;;;;;;;;;4979982;28;20101;-77
2023/11/27 12:32:35;;;;;;;3.78;1.80;;;;;;;;;;4978845;28;20039;-77
2023/11/27 12:35:09;;;;;;;4.50;1.85;;;;;;;;;;4980971;28;20026;-77
2023/11/27 12:37:35;;;;;;;3.33;1.90;;;;;;;;;;4986358;28;20056;-77
2023/11/27 12:40:02;;;;;;;3.65;2.38;;;;;;;;;;4983954;28;20115;-77
2023/11/27 12:42:28;;;;;;;4.28;1.83;;;;;;;;;;4981277;28;20062;-77
2023/11/27 12:44:55;;;;;;;4.00;1.90;;;;;;;;;;4981378;28;20027;-77
2023/11/27 12:47:21;;;;;;;4.00;2.40;;;;;;;;;;4980944;28;20041;-77
2023/11/27 12:49:51;;;;;;;3.20;1.75;;;;;;;;;;4977227;28;20818;-77
2023/11/27 12:52:16;;;;;;;3.95;2.42;;;;;;;;;;4981519;28;20050;-77
2023/11/27 12:54:42;;;;;;;2.92;1.48;;;;;;;;;;4982621;28;20026;-77
2023/11/27 12:57:09;;;;;;;5.03;2.40;;;;;;;;;;4982060;28;20124;-77
2023/11/27 12:59:39;;;;;;;2.75;1.58;;;;;;;;;;4981265;28;20451;-77
2023/11/27 13:02:06;;;;;;;3.72;1.75;;;;;;;;;;4987299;28;20028;-76
2023/11/27 13:04:35;;;;;;;5.30;2.40;;;;;;;;;;4979826;28;20050;-77
2023/11/27 13:07:05;;;;;;;4.28;2.00;;;;;;;;;;4980843;28;20117;-75
2023/11/27 13:09:30;;;;;;;4.13;2.65;;;;;;;;;;4983448;28;20042;-77
2023/11/27 13:11:55;;;;;;;4.97;2.67;;;;;;;;;;4983730;28;20030;-77
2023/11/27 13:14:22;;;;;;;4.05;2.58;;;;;;;;;;4985515;28;20023;-77
2023/11/27 13:16:47;;;;;;;5.72;3.08;;;;;;;;;;4981421;28;20030;-77
2023/11/27 13:19:13;;;;;;;7.00;4.53;;;;;;;;;;4988061;28;20597;-80
2023/11/27 13:21:38;;;;;;;5.53;3.40;;;;;;;;;;4993715;28;20382;-79
2023/11/27 13:24:04;;;;;;;5.72;2.83;;;;;;;;;;4989894;28;20031;-79
2023/11/27 13:26:35;;;;;;;5.10;3.25;;;;;;;;;;4994692;28;20037;-80
2023/11/27 13:29:01;;;;;;;5.15;3.08;;;;;;;;;;4991138;28;20045;-80
2023/11/27 13:31:28;;;;;;;5.43;3.10;;;;;;;;;;4989668;28;20464;-78
2023/11/27 13:33:53;;;;;;;4.85;2.90;;;;;;;;;;4982730;28;20034;-78
2023/11/27 13:36:19;;;;;;;16.48;9.40;;;;;;;;;;4982363;28;20387;-78
2023/11/27 13:38:47;;;;;;;10.68;5.55;;;;;;;;;;4982612;28;20035;-77
2023/11/27 13:41:14;;;;;;;7.75;4.15;;;;;;;;;;4985514;28;20030;-77
2023/11/27 13:43:43;;;;;;;7.07;3.95;;;;;;;;;;4983164;28;20145;-77
2023/11/27 13:46:10;;;;;;;6.20;3.80;;;;;;;;;;4982348;28;20522;-77
2023/11/27 13:48:35;;;;;;;8.32;4.63;;;;;;;;;;4991483;28;20594;-77
2023/11/27 13:51:12;;;;;;;6.28;3.95;;;;;;;;;;4992306;28;20041;-80
2023/11/27 13:53:38;;;;;;;8.35;5.32;;;;;;;;;;4985790;28;20030;-77
2023/11/27 13:56:06;;;;;;;8.60;4.70;;;;;;;;;;4981509;28;20034;-77
2023/11/27 13:58:32;;;;;;;10.05;5.45;;;;;;;;;;4980657;28;20058;-77
2023/11/27 14:01:02;;;;;;;9.05;4.97;;;;;;;;;;4980337;28;20092;-77
2023/11/27 14:03:30;;;;;;;12.07;7.10;;;;;;;;;;4983197;28;20514;-77
2023/11/27 14:05:55;;;;;;;10.88;6.40;;;;;;;;;;4982445;28;20031;-77
2023/11/27 14:08:37;;;;;;;8.50;4.72;;;;;;;;;;4982939;28;20080;-77
2023/11/27 14:11:15;;;;;;;11.88;5.72;;;;;;;;;;4982846;28;20077;-77
2023/11/27 14:13:40;;;;;;;7.60;3.85;;;;;;;;;;4980159;28;20039;-77
2023/11/27 14:16:13;;;;;;;9.38;4.20;;;;;;;;;;4982006;28;20079;-77
2023/11/27 14:18:50;;;;;;;7.53;3.50;;;;;;;;;;4986247;28;20094;-77
2023/11/27 14:23:54;;;;;;;6.35;3.72;;;;;;;;;;4985637;28;20026;-78
2023/11/27 14:26:34;;;;;;;6.82;3.58;;;;;;;;;;4985167;28;20505;-77
2023/11/27 14:29:08;;;;;;;7.68;3.60;;;;;;;;;;4985419;28;20023;-77
2023/11/27 14:31:34;;;;;;;8.02;4.15;;;;;;;;;;4980407;28;20486;-77
2023/11/27 14:33:59;;;;;;;6.75;3.95;;;;;;;;;;4984238;28;20087;-77
2023/11/27 14:36:26;;;;;;;8.30;3.78;;;;;;;;;;4983298;28;20026;-77
2023/11/27 14:38:55;;;;;;;7.05;4.35;;;;;;;;;;4979899;28;20088;-77
2023/11/27 14:41:20;;;;;;;6.88;3.42;;;;;;;;;;4984167;28;20046;-77